Washington Boro, Pennsylvania
Current Conditions -  °F | °C
As of 10:05 AM on Wednesday 26 Nov 2014 (Local Time) from KLNS Reporting Station
Light Snow Light Snow  
Wind Chill: -2°   Ceiling: 900
Heat Index:   Visibility: 1.5mi
Dew Point:   Wind: 5mph
Humidity: 96%   Direction: 70°ENE
Pressure: 30.09"   Gusts: NA
Location:  39.99°N, 76.47°W
Report Text: KLNS 261505Z 07004KT 1 1/2SM -SN BR SCT005 BKN009 OVC026 01/00 A3009 RMK AO2 P0004 T00060000
Loading
Personal Weather Stations






























Interactive Weather Map New forecast layout! Learn more

10-Day Weather Forecast

Advertisements
Track Severe Weather on mobile